createdAt,value
2022-10-08T00:01:49.140Z,99065.75
2022-10-08T00:04:15.600Z,99067.22
2022-10-08T00:06:42.090Z,99061.84
2022-10-08T00:09:08.462Z,99059.81
2022-10-08T00:11:38.318Z,99054.25
2022-10-08T00:14:06.050Z,99051.56
2022-10-08T00:16:38.575Z,99060.00
2022-10-08T00:19:10.350Z,99056.50
2022-10-08T00:21:39.344Z,99058.34
2022-10-08T00:24:07.987Z,99069.88
2022-10-08T00:26:41.131Z,99065.34
2022-10-08T00:29:13.302Z,99063.06
2022-10-08T00:31:41.533Z,99051.56
2022-10-08T00:34:11.249Z,99065.97
2022-10-08T00:36:39.396Z,99055.66
2022-10-08T00:39:16.103Z,99060.78
2022-10-08T00:41:45.531Z,99050.94
2022-10-08T00:44:49.636Z,99044.94
2022-10-08T00:47:20.236Z,99035.28
2022-10-08T00:49:50.774Z,99047.59
2022-10-08T00:52:19.003Z,99047.78
2022-10-08T00:54:46.084Z,99043.63
2022-10-08T00:57:12.660Z,99046.75
2022-10-08T00:59:39.236Z,99055.75
2022-10-08T01:02:06.067Z,99058.41
2022-10-08T01:04:32.683Z,99065.75
2022-10-08T01:07:11.979Z,99053.78
2022-10-08T01:09:45.633Z,99051.69
2022-10-08T01:12:25.425Z,99054.19
2022-10-08T01:14:57.611Z,99051.13
2022-10-08T01:17:39.609Z,99046.59
2022-10-08T01:20:27.766Z,99045.56
2022-10-08T01:23:27.883Z,99041.50
2022-10-08T01:25:54.547Z,99043.97
2022-10-08T01:28:30.976Z,99042.72
2022-10-08T01:31:09.546Z,99040.84
2022-10-08T01:33:39.798Z,99043.34
2022-10-08T01:36:08.064Z,99042.06
2022-10-08T01:38:40.004Z,99042.88
2022-10-08T01:41:09.715Z,99035.72
2022-10-08T01:43:39.829Z,99033.88
2022-10-08T01:46:14.482Z,99041.09
2022-10-08T01:48:44.515Z,99030.00
2022-10-08T01:51:16.942Z,99030.44
2022-10-08T01:53:46.288Z,99020.56
2022-10-08T01:56:18.304Z,99019.75
2022-10-08T01:58:54.936Z,99017.03
2022-10-08T02:01:37.462Z,99017.44
2022-10-08T02:04:04.726Z,99020.53
2022-10-08T02:06:35.799Z,99023.00
2022-10-08T02:09:02.154Z,99026.53
2022-10-08T02:11:28.567Z,99028.97
2022-10-08T02:13:55.402Z,99017.84
2022-10-08T02:16:29.173Z,99017.44
2022-10-08T02:19:08.295Z,99028.13
2022-10-08T02:21:39.741Z,99023.34
2022-10-08T02:24:15.617Z,99012.88
2022-10-08T02:26:48.043Z,99022.97
2022-10-08T02:29:28.450Z,99017.22
2022-10-08T02:32:00.259Z,99022.38
2022-10-08T02:34:32.094Z,99013.31
2022-10-08T02:37:10.877Z,99018.03
2022-10-08T02:39:41.868Z,99015.19
2022-10-08T02:42:12.584Z,99011.03
2022-10-08T02:44:46.010Z,99011.03
2022-10-08T02:47:17.933Z,99015.56
2022-10-08T02:49:53.276Z,99021.75
2022-10-08T02:52:22.533Z,99023.84
2022-10-08T02:54:51.706Z,99023.44
2022-10-08T02:57:32.358Z,99020.38
2022-10-08T02:59:59.485Z,99017.88
2022-10-08T03:02:34.721Z,99019.94
2022-10-08T03:05:05.939Z,99013.38
2022-10-08T03:07:33.828Z,99012.13
2022-10-08T03:10:05.127Z,99025.66
2022-10-08T03:12:32.319Z,99016.41
2022-10-08T03:14:59.039Z,99014.53
2022-10-08T03:17:31.451Z,99015.16
2022-10-08T03:19:57.916Z,99016.16
2022-10-08T03:22:25.058Z,99025.25
2022-10-08T03:24:56.031Z,99030.78
2022-10-08T03:27:23.249Z,99022.56
2022-10-08T03:29:49.557Z,99028.34
2022-10-08T03:32:16.000Z,99026.69
2022-10-08T03:34:42.428Z,99028.31
2022-10-08T03:37:08.776Z,99033.88
2022-10-08T03:39:35.137Z,99042.88
2022-10-08T03:42:01.503Z,99037.34
2022-10-08T03:44:27.846Z,99042.88
2022-10-08T03:46:54.205Z,99045.78
2022-10-08T03:49:20.666Z,99047.63
2022-10-08T03:51:47.072Z,99044.31
2022-10-08T03:54:13.521Z,99046.97
2022-10-08T03:56:40.245Z,99043.91
2022-10-08T03:59:06.696Z,99047.81
2022-10-08T04:01:33.116Z,99050.09
2022-10-08T04:03:59.885Z,99053.59
2022-10-08T04:06:26.240Z,99059.19
2022-10-08T04:08:52.789Z,99055.47
2022-10-08T04:11:19.733Z,99052.19
2022-10-08T04:13:46.231Z,99054.22
2022-10-08T04:16:18.028Z,99059.97
2022-10-08T04:18:44.620Z,99060.22
2022-10-08T04:21:14.028Z,99052.81
2022-10-08T04:23:42.085Z,99050.59
2022-10-08T04:26:10.104Z,99055.34
2022-10-08T04:28:38.983Z,99055.97
2022-10-08T04:31:11.394Z,99050.22
2022-10-08T04:33:38.407Z,99054.78
2022-10-08T04:36:31.058Z,99062.44
2022-10-08T04:38:57.403Z,99066.72
2022-10-08T04:41:26.209Z,99067.50
2022-10-08T04:43:53.927Z,99065.22
2022-10-08T04:46:22.113Z,99058.44
2022-10-08T04:48:51.213Z,99067.28
2022-10-08T04:51:19.379Z,99067.09
2022-10-08T04:53:46.129Z,99073.28
2022-10-08T04:56:17.099Z,99072.66
2022-10-08T04:58:44.630Z,99074.97
2022-10-08T05:01:13.591Z,99069.22
2022-10-08T05:03:42.913Z,99077.69
2022-10-08T05:06:10.692Z,99077.31
2022-10-08T05:08:37.615Z,99073.34
2022-10-08T05:11:04.756Z,99079.13
2022-10-08T05:13:31.615Z,99080.38
2022-10-08T05:16:06.213Z,99085.94
2022-10-08T05:18:33.656Z,99094.41
2022-10-08T05:21:10.969Z,99101.00
2022-10-08T05:23:38.343Z,99106.13
2022-10-08T05:26:19.183Z,99096.03
2022-10-08T05:28:46.139Z,99089.81
2022-10-08T05:31:14.161Z,99096.22
2022-10-08T05:33:40.720Z,99096.44
2022-10-08T05:36:09.235Z,99099.94
2022-10-08T05:38:36.168Z,99100.53
2022-10-08T05:41:31.057Z,99103.47
2022-10-08T05:43:58.714Z,99102.38
2022-10-08T05:46:27.615Z,99111.44
2022-10-08T05:48:59.032Z,99111.84
2022-10-08T05:51:25.796Z,99106.06
2022-10-08T05:53:53.901Z,99111.84
2022-10-08T05:56:22.535Z,99116.16
2022-10-08T05:58:49.934Z,99127.69
2022-10-08T06:01:22.256Z,99126.47
2022-10-08T06:03:50.410Z,99125.06
2022-10-08T06:06:17.319Z,99127.16
2022-10-08T06:08:43.848Z,99137.06
2022-10-08T06:11:10.260Z,99137.50
2022-10-08T06:13:36.602Z,99139.13
2022-10-08T06:16:05.939Z,99141.63
2022-10-08T06:18:35.366Z,99147.56
2022-10-08T06:21:08.209Z,99144.31
2022-10-08T06:23:34.959Z,99149.44
2022-10-08T06:26:05.889Z,99154.81
2022-10-08T06:28:33.855Z,99154.63
2022-10-08T06:31:00.547Z,99173.00
2022-10-08T06:33:27.299Z,99171.41
2022-10-08T06:35:54.340Z,99167.69
2022-10-08T06:38:21.662Z,99164.22
2022-10-08T06:40:48.039Z,99171.03
2022-10-08T06:43:17.101Z,99171.84
2022-10-08T06:45:45.728Z,99167.13
2022-10-08T06:48:13.651Z,99176.63
2022-10-08T06:50:40.559Z,99172.81
2022-10-08T06:53:09.398Z,99178.00
2022-10-08T06:55:36.333Z,99171.44
2022-10-08T06:58:03.794Z,99176.41
2022-10-08T07:00:30.251Z,99176.88
2022-10-08T07:02:57.424Z,99180.63
2022-10-08T07:05:24.238Z,99181.03
2022-10-08T07:07:50.663Z,99187.66
2022-10-08T07:10:18.599Z,99181.47
2022-10-08T07:12:45.729Z,99181.91
2022-10-08T07:15:12.321Z,99179.44
2022-10-08T07:17:38.823Z,99178.63
2022-10-08T07:20:06.007Z,99184.41
2022-10-08T07:22:32.410Z,99182.34
2022-10-08T07:24:58.811Z,99182.97
2022-10-08T07:27:25.453Z,99172.06
2022-10-08T07:29:51.823Z,99190.22
2022-10-08T07:32:18.232Z,99188.16
2022-10-08T07:34:44.950Z,99194.34
2022-10-08T07:37:11.523Z,99197.63
2022-10-08T07:39:38.193Z,99198.91
2022-10-08T07:42:06.425Z,99196.22
2022-10-08T07:44:32.967Z,99199.06
2022-10-08T07:46:59.666Z,99195.88
2022-10-08T07:49:26.223Z,99199.63
2022-10-08T07:51:52.581Z,99192.31
2022-10-08T07:54:19.867Z,99188.50
2022-10-08T07:56:46.353Z,99189.66
2022-10-08T07:59:12.973Z,99190.19
2022-10-08T08:01:39.598Z,99188.16
2022-10-08T08:04:07.851Z,99188.75
2022-10-08T08:06:39.956Z,99185.97
2022-10-08T08:09:06.366Z,99183.97
2022-10-08T08:11:32.921Z,99176.19
2022-10-08T08:13:59.240Z,99184.41
2022-10-08T08:16:27.674Z,99186.44
2022-10-08T08:18:56.710Z,99187.81
2022-10-08T08:21:28.219Z,99190.66
2022-10-08T08:23:56.818Z,99193.69
2022-10-08T08:26:36.058Z,99195.88
2022-10-08T08:29:07.172Z,99192.66
2022-10-08T08:31:37.296Z,99198.44
2022-10-08T08:34:10.454Z,99203.75
2022-10-08T08:36:39.376Z,99196.91
2022-10-08T08:39:08.467Z,99198.81
2022-10-08T08:42:12.482Z,99188.91
2022-10-08T08:44:43.820Z,99195.34
2022-10-08T08:47:17.200Z,99192.72
2022-10-08T08:49:55.194Z,99202.41
2022-10-08T08:52:28.495Z,99208.38
2022-10-08T08:54:55.228Z,99208.84
2022-10-08T08:57:46.559Z,99207.16
2022-10-08T09:00:20.820Z,99208.31
2022-10-08T09:02:56.262Z,99207.06
2022-10-08T09:05:25.539Z,99206.22
2022-10-08T09:07:59.360Z,99206.16
2022-10-08T09:10:36.648Z,99209.94
2022-10-08T09:13:03.565Z,99206.91
2022-10-08T09:15:37.829Z,99206.97
2022-10-08T09:18:14.993Z,99206.31
2022-10-08T09:20:42.649Z,99214.16
2022-10-08T09:23:16.041Z,99212.84
2022-10-08T09:25:44.117Z,99206.16
2022-10-08T09:28:28.136Z,99207.78
2022-10-08T09:31:10.947Z,99207.50
2022-10-08T09:33:42.142Z,99213.94
2022-10-08T09:36:12.578Z,99212.47
2022-10-08T09:38:40.333Z,99224.25
2022-10-08T09:41:16.972Z,99224.94
2022-10-08T09:43:43.887Z,99225.97
2022-10-08T09:46:29.173Z,99227.00
2022-10-08T09:48:55.827Z,99221.75
2022-10-08T09:51:23.369Z,99221.28
2022-10-08T09:53:58.639Z,99216.91
2022-10-08T09:56:28.148Z,99215.03
2022-10-08T09:59:01.840Z,99221.00
2022-10-08T10:01:29.123Z,99229.69
2022-10-08T10:04:05.674Z,99223.53
2022-10-08T10:06:35.377Z,99220.63
2022-10-08T10:09:26.688Z,99215.75
2022-10-08T10:12:14.118Z,99219.47
2022-10-08T10:14:51.043Z,99223.28
2022-10-08T10:17:31.197Z,99224.97
2022-10-08T10:20:04.895Z,99225.88
2022-10-08T10:23:19.421Z,99231.41
2022-10-08T10:25:57.630Z,99224.41
2022-10-08T10:28:47.504Z,99222.88
2022-10-08T10:31:19.701Z,99224.66
2022-10-08T10:34:03.783Z,99227.16
2022-10-08T10:36:34.951Z,99228.13
2022-10-08T10:39:15.840Z,99231.00
2022-10-08T10:41:52.796Z,99221.38
2022-10-08T10:44:29.025Z,99222.72
2022-10-08T10:46:58.814Z,99230.19
2022-10-08T10:49:34.962Z,99231.75
2022-10-08T10:52:26.427Z,99230.81
2022-10-08T10:55:11.423Z,99228.81
2022-10-08T10:58:04.095Z,99229.19
2022-10-08T11:00:43.055Z,99234.75
2022-10-08T11:03:21.254Z,99220.75
2022-10-08T11:05:55.130Z,99232.03
2022-10-08T11:08:42.438Z,99225.53
2022-10-08T11:11:28.541Z,99227.34
2022-10-08T11:14:28.486Z,99236.09
2022-10-08T11:17:21.296Z,99227.81
2022-10-08T11:20:16.745Z,99229.44
2022-10-08T11:22:55.038Z,99221.09
2022-10-08T11:26:02.120Z,99226.94
2022-10-08T11:28:34.076Z,99219.63
2022-10-08T11:31:33.771Z,99223.16
2022-10-08T11:34:02.010Z,99226.41
2022-10-08T11:36:37.172Z,99231.84
2022-10-08T11:39:19.704Z,99227.41
2022-10-08T11:42:01.570Z,99232.16
2022-10-08T11:44:30.951Z,99237.84
2022-10-08T11:47:36.708Z,99238.97
2022-10-08T11:50:05.464Z,99232.53
2022-10-08T11:52:34.342Z,99231.72
2022-10-08T11:55:07.466Z,99237.38
2022-10-08T11:57:55.881Z,99232.25
2022-10-08T12:00:26.809Z,99230.47
2022-10-08T12:02:58.145Z,99234.00
2022-10-08T12:05:48.015Z,99236.91
2022-10-08T12:08:59.053Z,99238.19
2022-10-08T12:11:34.341Z,99226.56
2022-10-08T12:14:15.258Z,99227.84
2022-10-08T12:16:47.544Z,99235.41
2022-10-08T12:19:32.704Z,99236.09
2022-10-08T12:22:14.860Z,99245.16
2022-10-08T12:24:44.786Z,99246.56
2022-10-08T12:27:19.234Z,99238.22
2022-10-08T12:30:06.581Z,99246.91
2022-10-08T12:32:52.407Z,99231.84
2022-10-08T12:35:29.218Z,99238.94
2022-10-08T12:38:08.825Z,99235.88
2022-10-08T12:40:57.744Z,99238.91
2022-10-08T12:43:58.252Z,99242.44
2022-10-08T12:46:48.101Z,99247.66
2022-10-08T12:49:35.385Z,99247.78
2022-10-08T12:52:11.703Z,99243.56
2022-10-08T12:54:57.573Z,99244.63
2022-10-08T12:57:34.959Z,99244.91
2022-10-08T13:00:26.847Z,99244.81
2022-10-08T13:03:12.615Z,99250.94
2022-10-08T13:05:40.813Z,99243.53
2022-10-08T13:08:26.276Z,99240.69
2022-10-08T13:10:52.747Z,99239.28
2022-10-08T13:13:39.098Z,99245.97
2022-10-08T13:16:16.534Z,99238.13
2022-10-08T13:18:47.426Z,99252.38
2022-10-08T13:21:31.549Z,99244.91
2022-10-08T13:24:03.017Z,99249.38
2022-10-08T13:26:54.919Z,99246.84
2022-10-08T13:29:21.392Z,99236.25
2022-10-08T13:31:58.971Z,99238.94
2022-10-08T13:34:42.788Z,99243.16
2022-10-08T13:37:25.648Z,99250.63
2022-10-08T13:39:57.550Z,99253.25
2022-10-08T13:42:28.759Z,99256.38
2022-10-08T13:44:58.136Z,99255.59
2022-10-08T13:47:24.518Z,99251.84
2022-10-08T13:49:50.929Z,99254.31
2022-10-08T13:52:23.765Z,99259.81
2022-10-08T13:54:56.708Z,99249.47
2022-10-08T13:57:23.485Z,99246.53
2022-10-08T13:59:50.020Z,99243.38
2022-10-08T14:02:16.610Z,99248.47
2022-10-08T14:04:43.206Z,99239.06
2022-10-08T14:07:21.818Z,99251.50
2022-10-08T14:09:49.722Z,99246.69
2022-10-08T14:12:18.067Z,99240.09
2022-10-08T14:14:45.336Z,99242.31
2022-10-08T14:17:11.833Z,99240.78
2022-10-08T14:19:38.289Z,99235.53
2022-10-08T14:22:06.198Z,99235.41
2022-10-08T14:24:36.542Z,99238.59
2022-10-08T14:27:08.211Z,99238.72
2022-10-08T14:29:35.149Z,99240.81
2022-10-08T14:32:03.339Z,99242.09
2022-10-08T14:34:30.135Z,99242.69
2022-10-08T14:36:56.518Z,99243.41
2022-10-08T14:39:27.285Z,99241.38
2022-10-08T14:41:53.850Z,99249.94
2022-10-08T14:44:21.875Z,99243.25
2022-10-08T14:46:49.602Z,99241.91
2022-10-08T14:49:18.957Z,99251.34
2022-10-08T14:51:46.531Z,99238.88
2022-10-08T14:54:13.153Z,99244.78
2022-10-08T14:56:47.013Z,99240.03
2022-10-08T14:59:13.991Z,99238.31
2022-10-08T15:01:40.397Z,99241.47
2022-10-08T15:04:07.379Z,99241.16
2022-10-08T15:06:35.690Z,99236.09
2022-10-08T15:09:03.159Z,99231.28
2022-10-08T15:11:29.477Z,99234.72
2022-10-08T15:13:56.027Z,99233.00
2022-10-08T15:16:22.668Z,99237.00
2022-10-08T15:18:49.038Z,99232.41
2022-10-08T15:21:15.410Z,99235.94
2022-10-08T15:23:42.081Z,99229.56
2022-10-08T15:26:12.852Z,99239.16
2022-10-08T15:28:39.515Z,99231.06
2022-10-08T15:31:08.238Z,99246.28
2022-10-08T15:33:39.387Z,99246.13
2022-10-08T15:36:31.566Z,99252.66
2022-10-08T15:39:11.897Z,99252.84
2022-10-08T15:41:40.992Z,99255.41
2022-10-08T15:44:19.423Z,99264.16
2022-10-08T15:46:50.888Z,99255.31
2022-10-08T15:49:17.342Z,99259.34
2022-10-08T15:51:45.644Z,99259.41
2022-10-08T15:54:12.188Z,99260.69
2022-10-08T15:56:41.199Z,99269.22
2022-10-08T15:59:07.577Z,99268.81
2022-10-08T16:01:34.028Z,99267.81
2022-10-08T16:04:01.653Z,99263.75
2022-10-08T16:06:33.323Z,99265.66
2022-10-08T16:09:00.339Z,99270.50
2022-10-08T16:11:29.743Z,99269.50
2022-10-08T16:14:02.096Z,99262.72
2022-10-08T16:16:30.449Z,99271.09
2022-10-08T16:19:00.476Z,99281.66
2022-10-08T16:21:29.024Z,99267.00
2022-10-08T16:23:56.943Z,99282.81
2022-10-08T16:26:23.899Z,99280.97
2022-10-08T16:28:56.559Z,99283.09
2022-10-08T16:31:25.561Z,99280.00
2022-10-08T16:34:00.226Z,99286.44
2022-10-08T16:36:27.918Z,99282.97
2022-10-08T16:38:55.551Z,99281.31
2022-10-08T16:41:32.442Z,99284.81
2022-10-08T16:44:03.287Z,99295.00
2022-10-08T16:46:32.154Z,99294.19
2022-10-08T16:49:24.508Z,99300.00
2022-10-08T16:52:01.586Z,99302.09
2022-10-08T16:54:31.291Z,99306.06
2022-10-08T16:56:58.186Z,99309.56
2022-10-08T16:59:26.197Z,99315.97
2022-10-08T17:01:55.020Z,99321.97
2022-10-08T17:04:23.087Z,99324.84
2022-10-08T17:06:51.052Z,99323.22
2022-10-08T17:09:19.212Z,99332.31
2022-10-08T17:11:46.161Z,99335.63
2022-10-08T17:14:12.905Z,99342.22
2022-10-08T17:16:41.973Z,99346.78
2022-10-08T17:19:09.046Z,99355.06
2022-10-08T17:21:37.016Z,99358.34
2022-10-08T17:24:03.540Z,99352.34
2022-10-08T17:26:31.723Z,99360.63
2022-10-08T17:29:04.951Z,99374.03
2022-10-08T17:31:31.621Z,99367.22
2022-10-08T17:33:59.454Z,99366.59
2022-10-08T17:36:29.321Z,99369.50
2022-10-08T17:38:58.558Z,99373.81
2022-10-08T17:41:27.282Z,99376.91
2022-10-08T17:43:58.520Z,99386.00
2022-10-08T17:46:29.687Z,99383.06
2022-10-08T17:48:56.678Z,99394.59
2022-10-08T17:51:25.634Z,99389.22
2022-10-08T17:53:54.117Z,99398.06
2022-10-08T17:56:20.993Z,99412.66
2022-10-08T17:58:48.510Z,99410.88
2022-10-08T18:01:18.869Z,99409.50
2022-10-08T18:03:51.876Z,99417.13
2022-10-08T18:06:18.927Z,99417.84
2022-10-08T18:08:46.226Z,99433.00
2022-10-08T18:11:15.599Z,99426.69
2022-10-08T18:13:42.006Z,99425.66
2022-10-08T18:16:12.204Z,99436.25
2022-10-08T18:18:39.006Z,99442.19
2022-10-08T18:21:06.653Z,99445.91
2022-10-08T18:23:35.279Z,99456.84
2022-10-08T18:26:19.173Z,99453.75
2022-10-08T18:28:53.094Z,99464.94
2022-10-08T18:31:23.189Z,99465.78
2022-10-08T18:33:52.089Z,99469.84
2022-10-08T18:36:20.868Z,99474.28
2022-10-08T18:38:49.132Z,99481.56
2022-10-08T18:41:23.065Z,99483.41
2022-10-08T18:43:49.873Z,99478.16
2022-10-08T18:46:19.143Z,99483.13
2022-10-08T18:48:45.999Z,99495.59
2022-10-08T18:51:18.953Z,99498.22
2022-10-08T18:53:46.765Z,99505.03
2022-10-08T18:56:19.189Z,99503.44
2022-10-08T18:58:45.634Z,99502.16
2022-10-08T19:01:21.166Z,99506.22
2022-10-08T19:03:50.283Z,99513.13
2022-10-08T19:06:20.088Z,99512.69
2022-10-08T19:08:47.363Z,99515.09
2022-10-08T19:11:20.169Z,99525.50
2022-10-08T19:13:48.056Z,99527.88
2022-10-08T19:16:15.487Z,99530.72
2022-10-08T19:19:02.210Z,99535.94
2022-10-08T19:21:29.668Z,99538.94
2022-10-08T19:23:57.206Z,99535.47
2022-10-08T19:26:24.543Z,99554.66
2022-10-08T19:28:54.017Z,99553.34
2022-10-08T19:31:23.350Z,99557.38
2022-10-08T19:33:55.100Z,99558.38
2022-10-08T19:36:23.574Z,99558.41
2022-10-08T19:38:56.795Z,99567.78
2022-10-08T19:41:24.114Z,99566.78
2022-10-08T19:43:51.739Z,99567.81
2022-10-08T19:46:18.924Z,99571.84
2022-10-08T19:48:54.069Z,99573.63
2022-10-08T19:51:22.551Z,99579.66
2022-10-08T19:53:54.238Z,99591.03
2022-10-08T19:56:23.653Z,99586.06
2022-10-08T19:58:53.659Z,99594.88
2022-10-08T20:01:26.002Z,99601.88
2022-10-08T20:03:54.661Z,99602.69
2022-10-08T20:06:24.587Z,99605.22
2022-10-08T20:08:56.325Z,99610.88
2022-10-08T20:11:23.069Z,99603.22
2022-10-08T20:13:51.552Z,99596.56
2022-10-08T20:16:21.047Z,99608.41
2022-10-08T20:18:48.789Z,99608.09
2022-10-08T20:21:15.207Z,99611.75
2022-10-08T20:23:41.686Z,99606.25
2022-10-08T20:26:15.171Z,99610.91
2022-10-08T20:28:42.768Z,99609.06
2022-10-08T20:31:15.212Z,99617.41
2022-10-08T20:33:42.893Z,99610.75
2022-10-08T20:36:17.670Z,99613.09
2022-10-08T20:38:45.859Z,99604.25
2022-10-08T20:41:13.712Z,99611.09
2022-10-08T20:43:40.408Z,99612.28
2022-10-08T20:46:10.143Z,99611.41
2022-10-08T20:48:39.233Z,99618.94
2022-10-08T20:51:09.002Z,99609.59
2022-10-08T20:53:37.573Z,99611.78
2022-10-08T20:56:10.958Z,99615.25
2022-10-08T20:58:38.326Z,99615.41
2022-10-08T21:01:08.097Z,99617.59
2022-10-08T21:03:37.675Z,99611.09
2022-10-08T21:06:07.082Z,99619.91
2022-10-08T21:08:38.762Z,99622.41
2022-10-08T21:11:07.120Z,99624.09
2022-10-08T21:13:34.879Z,99621.75
2022-10-08T21:16:29.255Z,99618.75
2022-10-08T21:19:01.285Z,99617.44
2022-10-08T21:21:31.123Z,99627.59
2022-10-08T21:23:58.603Z,99633.25
2022-10-08T21:26:30.450Z,99632.19
2022-10-08T21:29:00.051Z,99636.84
2022-10-08T21:31:31.013Z,99627.34
2022-10-08T21:33:59.504Z,99636.44
2022-10-08T21:36:32.285Z,99636.25
2022-10-08T21:39:00.502Z,99645.41
2022-10-08T21:41:32.337Z,99637.72
2022-10-08T21:44:01.324Z,99640.72
2022-10-08T21:46:31.310Z,99647.41
2022-10-08T21:49:19.127Z,99641.91
2022-10-08T21:51:46.095Z,99643.88
2022-10-08T21:54:14.419Z,99647.22
2022-10-08T21:56:42.813Z,99642.41
2022-10-08T21:59:14.949Z,99647.22
2022-10-08T22:01:47.500Z,99642.72
2022-10-08T22:04:20.470Z,99646.22
2022-10-08T22:06:54.282Z,99645.38
2022-10-08T22:09:24.145Z,99644.72
2022-10-08T22:11:51.887Z,99639.34
2022-10-08T22:14:19.029Z,99640.34
2022-10-08T22:16:45.826Z,99639.16
2022-10-08T22:19:15.255Z,99636.31
2022-10-08T22:21:44.041Z,99636.94
2022-10-08T22:24:11.395Z,99646.56
2022-10-08T22:26:43.817Z,99638.22
2022-10-08T22:29:10.668Z,99639.00
2022-10-08T22:31:40.538Z,99646.00
2022-10-08T22:34:08.457Z,99640.84
2022-10-08T22:36:39.199Z,99636.81
2022-10-08T22:39:06.064Z,99639.97
2022-10-08T22:41:34.605Z,99637.94
2022-10-08T22:44:01.831Z,99638.63
2022-10-08T22:46:32.423Z,99640.94
2022-10-08T22:49:01.502Z,99636.09
2022-10-08T22:51:29.938Z,99632.44
2022-10-08T22:53:56.551Z,99637.59
2022-10-08T22:56:27.540Z,99637.44
2022-10-08T22:58:54.336Z,99639.75
2022-10-08T23:01:23.297Z,99634.53
2022-10-08T23:03:51.645Z,99636.31
2022-10-08T23:06:43.480Z,99636.75
2022-10-08T23:09:11.925Z,99641.25
2022-10-08T23:11:38.807Z,99634.50
2022-10-08T23:14:06.740Z,99637.78
2022-10-08T23:16:34.260Z,99633.91
2022-10-08T23:19:05.108Z,99637.34
2022-10-08T23:21:32.422Z,99631.03
2022-10-08T23:24:03.372Z,99629.00
2022-10-08T23:26:29.714Z,99627.50
2022-10-08T23:28:59.727Z,99626.97
2022-10-08T23:31:32.013Z,99623.34
2022-10-08T23:33:59.915Z,99619.16
2022-10-08T23:36:29.553Z,99621.00
2022-10-08T23:38:57.690Z,99619.47
2022-10-08T23:41:24.987Z,99619.59
2022-10-08T23:43:52.793Z,99622.25
2022-10-08T23:46:26.958Z,99618.13
2022-10-08T23:48:55.175Z,99617.63
2022-10-08T23:51:22.789Z,99614.06
2022-10-08T23:53:51.328Z,99617.19
2022-10-08T23:56:18.488Z,99617.50
2022-10-08T23:58:45.111Z,99624.03
